createdAt,value
2023-03-04T00:01:24.784Z,95938.00
2023-03-04T00:06:52.738Z,95945.00
2023-03-04T00:12:20.968Z,95946.00
2023-03-04T00:17:48.673Z,95945.00
2023-03-04T00:23:17.406Z,95950.00
2023-03-04T00:28:45.546Z,95959.00
2023-03-04T00:34:13.325Z,95953.00
2023-03-04T00:39:41.208Z,95962.00
2023-03-04T00:45:09.980Z,95961.00
2023-03-04T00:50:38.070Z,95953.00
2023-03-04T00:56:06.797Z,95955.00
2023-03-04T01:01:34.880Z,95952.00
2023-03-04T01:07:03.105Z,95946.00
2023-03-04T01:12:30.819Z,95935.00
2023-03-04T01:18:00.842Z,95939.00
2023-03-04T01:23:28.552Z,95933.00
2023-03-04T01:28:56.728Z,95937.00
2023-03-04T01:34:24.529Z,95924.00
2023-03-04T01:39:52.809Z,95919.00
2023-03-04T01:45:21.196Z,95906.00
2023-03-04T01:50:48.972Z,95904.00
2023-03-04T01:56:28.579Z,95903.00
2023-03-04T02:02:00.311Z,95897.00
2023-03-04T02:07:28.219Z,95900.00
2023-03-04T02:12:57.216Z,95875.00
2023-03-04T02:18:25.370Z,95877.00
2023-03-04T02:24:25.546Z,95879.00
2023-03-04T02:29:53.780Z,95866.00
2023-03-04T02:35:22.205Z,95871.00
2023-03-04T02:40:53.794Z,95873.00
2023-03-04T02:46:22.913Z,95877.00
2023-03-04T02:51:54.022Z,95879.00
2023-03-04T02:57:22.062Z,95872.00
2023-03-04T03:02:57.093Z,95865.00
2023-03-04T03:08:25.021Z,95852.00
2023-03-04T03:13:53.386Z,95869.00
2023-03-04T03:19:21.372Z,95870.00
2023-03-04T03:24:49.423Z,95872.00
2023-03-04T03:30:17.559Z,95871.00
2023-03-04T03:35:45.722Z,95873.00
2023-03-04T03:41:13.672Z,95877.00
2023-03-04T03:46:41.597Z,95863.00
2023-03-04T03:52:09.815Z,95870.00
2023-03-04T03:57:37.649Z,95867.00
2023-03-04T04:03:06.003Z,95862.00
2023-03-04T04:08:34.193Z,95860.00
2023-03-04T04:14:02.223Z,95864.00
2023-03-04T04:19:29.969Z,95870.00
2023-03-04T04:24:58.162Z,95874.00
2023-03-04T04:30:25.976Z,95861.00
2023-03-04T04:35:54.337Z,95871.00
2023-03-04T04:41:29.233Z,95873.00
2023-03-04T04:46:56.971Z,95864.00
2023-03-04T04:52:24.883Z,95867.00
2023-03-04T04:57:52.697Z,95861.00
2023-03-04T05:03:22.865Z,95863.00
2023-03-04T05:08:51.928Z,95871.00
2023-03-04T05:14:20.315Z,95866.00
2023-03-04T05:19:49.109Z,95870.00
2023-03-04T05:25:18.009Z,95866.00
2023-03-04T05:30:50.604Z,95860.00
2023-03-04T05:36:18.622Z,95865.00
2023-03-04T05:41:48.479Z,95872.00
2023-03-04T05:47:17.348Z,95865.00
2023-03-04T05:52:45.247Z,95880.00
2023-03-04T05:58:13.183Z,95877.00
2023-03-04T06:03:43.478Z,95886.00
2023-03-04T06:09:15.204Z,95882.00
2023-03-04T06:14:43.113Z,95888.00
2023-03-04T06:20:12.717Z,95890.00
2023-03-04T06:25:40.552Z,95893.00
2023-03-04T06:31:08.873Z,95910.00
2023-03-04T06:36:36.712Z,95908.00
2023-03-04T06:42:04.670Z,95904.00
2023-03-04T06:47:33.397Z,95914.00
2023-03-04T06:53:04.388Z,95913.00
2023-03-04T06:58:32.175Z,95917.00
2023-03-04T07:03:59.969Z,95930.00
2023-03-04T07:09:27.933Z,95923.00
2023-03-04T07:14:55.750Z,95930.00
2023-03-04T07:20:23.754Z,95928.00
2023-03-04T07:25:52.072Z,95933.00
2023-03-04T07:31:29.869Z,95943.00
2023-03-04T07:36:58.181Z,95949.00
2023-03-04T07:42:26.909Z,95951.00
2023-03-04T07:48:01.367Z,95953.00
2023-03-04T07:53:31.236Z,95965.00
2023-03-04T07:59:01.265Z,95963.00
2023-03-04T08:04:30.352Z,95978.00
2023-03-04T08:09:58.808Z,95985.00
2023-03-04T08:15:27.578Z,95971.00
2023-03-04T08:20:57.496Z,95976.00
2023-03-04T08:26:30.635Z,95974.00
2023-03-04T08:31:59.033Z,95961.00
2023-03-04T08:37:26.926Z,95976.00
2023-03-04T08:42:54.911Z,95978.00
2023-03-04T08:48:24.482Z,95970.00
2023-03-04T08:53:59.009Z,95977.00
2023-03-04T08:59:26.903Z,95976.00
2023-03-04T09:04:54.718Z,95984.00
2023-03-04T09:10:24.301Z,95984.00
2023-03-04T09:15:53.104Z,95984.00
2023-03-04T09:21:21.030Z,95971.00
2023-03-04T09:26:53.764Z,95960.00
2023-03-04T09:32:21.634Z,95964.00
2023-03-04T09:37:50.657Z,95967.00
2023-03-04T09:43:29.415Z,95973.00
2023-03-04T09:48:57.488Z,95964.00
2023-03-04T09:54:41.318Z,95970.00
2023-03-04T10:00:13.121Z,95956.00
2023-03-04T10:06:05.306Z,95958.00
2023-03-04T10:11:49.169Z,95952.00
2023-03-04T10:17:39.361Z,95947.00
2023-03-04T10:23:19.416Z,95940.00
2023-03-04T10:28:48.436Z,95933.00
2023-03-04T10:34:17.820Z,95927.00
2023-03-04T10:39:49.368Z,95939.00
2023-03-04T10:45:31.213Z,95936.00
2023-03-04T10:51:28.269Z,95922.00
2023-03-04T10:57:19.464Z,95927.00
2023-03-04T11:02:50.312Z,95912.00
2023-03-04T11:08:22.281Z,95913.00
2023-03-04T11:13:59.667Z,95921.00
2023-03-04T11:19:40.046Z,95914.00
2023-03-04T11:25:29.517Z,95914.00
2023-03-04T11:31:03.626Z,95921.00
2023-03-04T11:36:58.226Z,95912.00
2023-03-04T11:42:57.624Z,95901.00
2023-03-04T11:48:58.080Z,95902.00
2023-03-04T11:54:34.740Z,95903.00
2023-03-04T12:00:26.654Z,95896.00
2023-03-04T12:06:29.736Z,95890.00
2023-03-04T12:12:50.086Z,95883.00
2023-03-04T12:18:44.753Z,95877.00
2023-03-04T12:25:07.332Z,95869.00
2023-03-04T12:31:22.425Z,95866.00
2023-03-04T12:37:25.789Z,95846.00
2023-03-04T12:43:27.407Z,95856.00
2023-03-04T12:49:10.154Z,95836.00
2023-03-04T12:54:51.965Z,95834.00
2023-03-04T13:00:35.299Z,95822.00
2023-03-04T13:06:15.207Z,95816.00
2023-03-04T13:11:54.934Z,95822.00
2023-03-04T13:17:49.599Z,95818.00
2023-03-04T13:23:43.925Z,95809.00
2023-03-04T13:29:35.094Z,95808.00
2023-03-04T13:35:03.198Z,95812.00
2023-03-04T13:40:37.877Z,95811.00
2023-03-04T13:46:21.062Z,95802.00
2023-03-04T13:51:49.076Z,95803.00
2023-03-04T13:57:20.212Z,95806.00
2023-03-04T14:02:48.057Z,95795.00
2023-03-04T14:08:20.926Z,95797.00
2023-03-04T14:13:50.057Z,95800.00
2023-03-04T14:19:38.569Z,95788.00
2023-03-04T14:25:29.560Z,95780.00
2023-03-04T14:30:59.270Z,95772.00
2023-03-04T14:36:30.066Z,95774.00
2023-03-04T14:42:09.848Z,95763.00
2023-03-04T14:47:46.754Z,95763.00
2023-03-04T14:53:19.262Z,95780.00
2023-03-04T14:58:58.226Z,95766.00
2023-03-04T15:04:26.161Z,95779.00
2023-03-04T15:09:56.003Z,95772.00
2023-03-04T15:15:45.456Z,95777.00
2023-03-04T15:21:32.446Z,95773.00
2023-03-04T15:27:04.234Z,95775.00
2023-03-04T15:32:32.264Z,95775.00
2023-03-04T15:38:00.824Z,95779.00
2023-03-04T15:43:28.736Z,95783.00
2023-03-04T15:49:00.781Z,95782.00
2023-03-04T15:54:29.671Z,95790.00
2023-03-04T15:59:58.659Z,95782.00
2023-03-04T16:05:26.588Z,95791.00
2023-03-04T16:10:54.960Z,95795.00
2023-03-04T16:16:22.974Z,95791.00
2023-03-04T16:21:50.842Z,95798.00
2023-03-04T16:27:21.214Z,95800.00
2023-03-04T16:32:49.087Z,95801.00
2023-03-04T16:38:32.107Z,95795.00
2023-03-04T16:44:01.812Z,95794.00
2023-03-04T16:49:31.588Z,95803.00
2023-03-04T16:55:00.924Z,95801.00
2023-03-04T17:00:32.598Z,95820.00
2023-03-04T17:06:03.377Z,95820.00
2023-03-04T17:11:32.213Z,95841.00
2023-03-04T17:17:00.874Z,95844.00
2023-03-04T17:22:30.018Z,95844.00
2023-03-04T17:27:57.854Z,95848.00
2023-03-04T17:33:26.726Z,95858.00
2023-03-04T17:39:02.355Z,95861.00
2023-03-04T17:44:30.556Z,95869.00
2023-03-04T17:49:59.464Z,95875.00
2023-03-04T17:55:27.341Z,95878.00
2023-03-04T18:01:21.718Z,95890.00
2023-03-04T18:06:49.642Z,95890.00
2023-03-04T18:12:18.968Z,95885.00
2023-03-04T18:17:47.635Z,95888.00
2023-03-04T18:23:16.536Z,95895.00
2023-03-04T18:28:44.591Z,95892.00
2023-03-04T18:34:12.586Z,95900.00
2023-03-04T18:39:42.057Z,95903.00
2023-03-04T18:45:14.647Z,95906.00
2023-03-04T18:50:44.919Z,95898.00
2023-03-04T18:56:19.719Z,95906.00
2023-03-04T19:01:50.203Z,95911.00
2023-03-04T19:07:18.301Z,95909.00
2023-03-04T19:12:46.250Z,95918.00
2023-03-04T19:18:27.268Z,95919.00
2023-03-04T19:23:56.304Z,95914.00
2023-03-04T19:29:24.345Z,95915.00
2023-03-04T19:34:52.386Z,95916.00
2023-03-04T19:40:21.562Z,95923.00
2023-03-04T19:45:55.629Z,95916.00
2023-03-04T19:51:26.331Z,95914.00
2023-03-04T19:56:54.730Z,95914.00
2023-03-04T20:02:22.623Z,95901.00
2023-03-04T20:07:50.548Z,95918.00
2023-03-04T20:13:18.493Z,95926.00
2023-03-04T20:18:48.975Z,95926.00
2023-03-04T20:24:19.136Z,95926.00
2023-03-04T20:29:49.567Z,95921.00
2023-03-04T20:35:17.930Z,95924.00
2023-03-04T20:40:46.267Z,95911.00
2023-03-04T20:46:43.413Z,95907.00
2023-03-04T20:52:12.425Z,95905.00
2023-03-04T20:57:40.302Z,95898.00
2023-03-04T21:03:08.266Z,95900.00
2023-03-04T21:08:37.089Z,95899.00
2023-03-04T21:14:05.096Z,95890.00
2023-03-04T21:19:42.206Z,95883.00
2023-03-04T21:25:11.229Z,95884.00
2023-03-04T21:30:39.338Z,95880.00
2023-03-04T21:36:07.758Z,95881.00
2023-03-04T21:41:35.834Z,95877.00
2023-03-04T21:47:03.996Z,95868.00
2023-03-04T21:52:32.011Z,95856.00
2023-03-04T21:57:59.900Z,95848.00
2023-03-04T22:03:28.296Z,95855.00
2023-03-04T22:08:57.029Z,95841.00
2023-03-04T22:14:27.750Z,95832.00
2023-03-04T22:19:55.836Z,95829.00
2023-03-04T22:25:23.918Z,95824.00
2023-03-04T22:30:51.861Z,95811.00
2023-03-04T22:36:19.833Z,95824.00
2023-03-04T22:41:48.258Z,95824.00
2023-03-04T22:47:16.230Z,95822.00
2023-03-04T22:52:44.526Z,95826.00
2023-03-04T22:58:12.523Z,95831.00
2023-03-04T23:03:42.707Z,95844.00
2023-03-04T23:09:10.794Z,95830.00
2023-03-04T23:14:40.290Z,95841.00
2023-03-04T23:20:12.497Z,95838.00
2023-03-04T23:25:40.499Z,95827.00
2023-03-04T23:31:08.609Z,95824.00
2023-03-04T23:36:38.033Z,95824.00
2023-03-04T23:42:06.206Z,95813.00
2023-03-04T23:47:34.845Z,95802.00
2023-03-04T23:53:02.913Z,95798.00
2023-03-04T23:58:30.824Z,95804.00
